sensor_id;sensor_type;location;lat;lon;timestamp;P1;durP1;ratioP1;P2;durP2;ratioP2
41661;SDS011;27351;45.992;12.666;2023-08-31T00:01:48;2.35;;;1.15;;
41661;SDS011;27351;45.992;12.666;2023-08-31T00:04:14;3.15;;;1.52;;
41661;SDS011;27351;45.992;12.666;2023-08-31T00:06:43;3.42;;;1.13;;
41661;SDS011;27351;45.992;12.666;2023-08-31T00:09:10;2.78;;;1.27;;
41661;SDS011;27351;45.992;12.666;2023-08-31T00:11:36;7.77;;;1.40;;
41661;SDS011;27351;45.992;12.666;2023-08-31T00:14:02;4.07;;;1.30;;
41661;SDS011;27351;45.992;12.666;2023-08-31T00:16:28;3.45;;;1.50;;
41661;SDS011;27351;45.992;12.666;2023-08-31T00:18:56;5.82;;;1.27;;
41661;SDS011;27351;45.992;12.666;2023-08-31T00:21:21;4.35;;;1.58;;
41661;SDS011;27351;45.992;12.666;2023-08-31T00:23:47;4.00;;;1.27;;
41661;SDS011;27351;45.992;12.666;2023-08-31T00:26:13;3.53;;;1.13;;
41661;SDS011;27351;45.992;12.666;2023-08-31T00:28:42;3.92;;;1.30;;
41661;SDS011;27351;45.992;12.666;2023-08-31T00:31:09;2.38;;;1.10;;
41661;SDS011;27351;45.992;12.666;2023-08-31T00:33:35;1.80;;;1.15;;
41661;SDS011;27351;45.992;12.666;2023-08-31T00:36:00;2.70;;;1.30;;
41661;SDS011;27351;45.992;12.666;2023-08-31T00:38:29;3.53;;;1.10;;
41661;SDS011;27351;45.992;12.666;2023-08-31T00:40:55;5.17;;;1.20;;
41661;SDS011;27351;45.992;12.666;2023-08-31T00:43:20;3.50;;;1.00;;
41661;SDS011;27351;45.992;12.666;2023-08-31T00:45:46;2.67;;;1.17;;
41661;SDS011;27351;45.992;12.666;2023-08-31T00:48:14;2.05;;;1.20;;
41661;SDS011;27351;45.992;12.666;2023-08-31T00:50:40;2.20;;;1.40;;
41661;SDS011;27351;45.992;12.666;2023-08-31T00:53:06;3.37;;;1.20;;
41661;SDS011;27351;45.992;12.666;2023-08-31T00:55:31;3.13;;;1.20;;
41661;SDS011;27351;45.992;12.666;2023-08-31T00:57:58;2.33;;;1.08;;
41661;SDS011;27351;45.992;12.666;2023-08-31T01:00:24;4.07;;;1.27;;
41661;SDS011;27351;45.992;12.666;2023-08-31T01:10:43;2.55;;;1.17;;
41661;SDS011;27351;45.992;12.666;2023-08-31T01:13:11;2.97;;;1.50;;
41661;SDS011;27351;45.992;12.666;2023-08-31T01:15:39;5.47;;;1.38;;
41661;SDS011;27351;45.992;12.666;2023-08-31T01:18:06;2.42;;;1.30;;
41661;SDS011;27351;45.992;12.666;2023-08-31T01:20:49;4.80;;;1.40;;
41661;SDS011;27351;45.992;12.666;2023-08-31T01:23:18;4.03;;;1.30;;
41661;SDS011;27351;45.992;12.666;2023-08-31T01:25:44;2.45;;;1.10;;
41661;SDS011;27351;45.992;12.666;2023-08-31T01:28:11;2.20;;;1.17;;
41661;SDS011;27351;45.992;12.666;2023-08-31T01:30:37;3.97;;;1.52;;
41661;SDS011;27351;45.992;12.666;2023-08-31T01:33:02;4.63;;;1.50;;
41661;SDS011;27351;45.992;12.666;2023-08-31T01:35:30;4.00;;;1.42;;
41661;SDS011;27351;45.992;12.666;2023-08-31T01:37:59;3.00;;;1.50;;
41661;SDS011;27351;45.992;12.666;2023-08-31T01:42:57;4.50;;;1.40;;
41661;SDS011;27351;45.992;12.666;2023-08-31T01:45:23;3.60;;;1.70;;
41661;SDS011;27351;45.992;12.666;2023-08-31T01:47:50;2.42;;;1.02;;
41661;SDS011;27351;45.992;12.666;2023-08-31T01:50:17;1.80;;;1.00;;
41661;SDS011;27351;45.992;12.666;2023-08-31T01:52:43;2.78;;;1.10;;
41661;SDS011;27351;45.992;12.666;2023-08-31T01:55:08;6.25;;;1.50;;
41661;SDS011;27351;45.992;12.666;2023-08-31T01:57:34;3.80;;;1.40;;
41661;SDS011;27351;45.992;12.666;2023-08-31T02:00:09;2.90;;;1.20;;
41661;SDS011;27351;45.992;12.666;2023-08-31T02:02:41;2.50;;;1.20;;
41661;SDS011;27351;45.992;12.666;2023-08-31T02:05:07;2.88;;;1.20;;
41661;SDS011;27351;45.992;12.666;2023-08-31T02:07:33;3.78;;;1.60;;
41661;SDS011;27351;45.992;12.666;2023-08-31T02:09:58;3.43;;;1.63;;
41661;SDS011;27351;45.992;12.666;2023-08-31T02:12:24;4.80;;;1.33;;
41661;SDS011;27351;45.992;12.666;2023-08-31T02:14:50;1.87;;;1.13;;
41661;SDS011;27351;45.992;12.666;2023-08-31T02:17:15;2.20;;;1.10;;
41661;SDS011;27351;45.992;12.666;2023-08-31T02:19:41;4.78;;;1.38;;
41661;SDS011;27351;45.992;12.666;2023-08-31T02:22:07;3.50;;;1.00;;
41661;SDS011;27351;45.992;12.666;2023-08-31T02:24:33;2.08;;;1.10;;
41661;SDS011;27351;45.992;12.666;2023-08-31T02:26:58;4.80;;;1.27;;
41661;SDS011;27351;45.992;12.666;2023-08-31T02:29:25;2.72;;;1.30;;
41661;SDS011;27351;45.992;12.666;2023-08-31T02:31:51;2.33;;;1.00;;
41661;SDS011;27351;45.992;12.666;2023-08-31T02:34:17;4.47;;;1.27;;
41661;SDS011;27351;45.992;12.666;2023-08-31T02:36:42;1.90;;;1.00;;
41661;SDS011;27351;45.992;12.666;2023-08-31T02:39:09;3.30;;;1.35;;
41661;SDS011;27351;45.992;12.666;2023-08-31T02:41:36;2.47;;;1.10;;
41661;SDS011;27351;45.992;12.666;2023-08-31T02:44:03;3.67;;;1.10;;
41661;SDS011;27351;45.992;12.666;2023-08-31T02:46:29;2.72;;;1.23;;
41661;SDS011;27351;45.992;12.666;2023-08-31T02:48:54;1.20;;;0.88;;
41661;SDS011;27351;45.992;12.666;2023-08-31T02:51:20;3.30;;;1.00;;
41661;SDS011;27351;45.992;12.666;2023-08-31T02:53:45;3.33;;;0.80;;
41661;SDS011;27351;45.992;12.666;2023-08-31T02:56:11;2.63;;;0.93;;
41661;SDS011;27351;45.992;12.666;2023-08-31T02:58:37;2.05;;;0.82;;
41661;SDS011;27351;45.992;12.666;2023-08-31T03:01:09;2.00;;;0.73;;
41661;SDS011;27351;45.992;12.666;2023-08-31T03:03:43;5.68;;;1.20;;
41661;SDS011;27351;45.992;12.666;2023-08-31T03:06:11;3.40;;;1.05;;
41661;SDS011;27351;45.992;12.666;2023-08-31T03:08:36;2.30;;;0.90;;
41661;SDS011;27351;45.992;12.666;2023-08-31T03:11:02;4.00;;;0.90;;
41661;SDS011;27351;45.992;12.666;2023-08-31T03:13:28;2.45;;;0.80;;
41661;SDS011;27351;45.992;12.666;2023-08-31T03:15:54;1.20;;;0.70;;
41661;SDS011;27351;45.992;12.666;2023-08-31T03:18:23;1.75;;;0.70;;
41661;SDS011;27351;45.992;12.666;2023-08-31T03:20:49;1.77;;;0.90;;
41661;SDS011;27351;45.992;12.666;2023-08-31T03:23:15;2.72;;;0.70;;
41661;SDS011;27351;45.992;12.666;2023-08-31T03:25:40;2.83;;;0.80;;
41661;SDS011;27351;45.992;12.666;2023-08-31T03:28:06;2.33;;;0.82;;
41661;SDS011;27351;45.992;12.666;2023-08-31T03:30:32;3.72;;;0.80;;
41661;SDS011;27351;45.992;12.666;2023-08-31T03:32:58;2.60;;;0.70;;
41661;SDS011;27351;45.992;12.666;2023-08-31T03:35:23;0.80;;;0.60;;
41661;SDS011;27351;45.992;12.666;2023-08-31T03:37:54;3.65;;;0.65;;
41661;SDS011;27351;45.992;12.666;2023-08-31T03:40:19;1.70;;;0.73;;
41661;SDS011;27351;45.992;12.666;2023-08-31T03:42:45;1.57;;;0.60;;
41661;SDS011;27351;45.992;12.666;2023-08-31T03:45:11;2.70;;;0.70;;
41661;SDS011;27351;45.992;12.666;2023-08-31T03:47:37;1.35;;;0.57;;
41661;SDS011;27351;45.992;12.666;2023-08-31T03:50:04;0.70;;;0.50;;
41661;SDS011;27351;45.992;12.666;2023-08-31T03:52:29;1.80;;;0.60;;
41661;SDS011;27351;45.992;12.666;2023-08-31T03:54:55;1.20;;;0.63;;
41661;SDS011;27351;45.992;12.666;2023-08-31T03:57:21;3.22;;;1.10;;
41661;SDS011;27351;45.992;12.666;2023-08-31T03:59:49;3.08;;;0.60;;
41661;SDS011;27351;45.992;12.666;2023-08-31T04:02:14;1.65;;;0.80;;
41661;SDS011;27351;45.992;12.666;2023-08-31T04:04:40;2.60;;;0.70;;
41661;SDS011;27351;45.992;12.666;2023-08-31T04:07:06;1.20;;;0.60;;
41661;SDS011;27351;45.992;12.666;2023-08-31T04:09:32;2.50;;;0.77;;
41661;SDS011;27351;45.992;12.666;2023-08-31T04:11:58;2.60;;;0.50;;
41661;SDS011;27351;45.992;12.666;2023-08-31T04:14:26;1.07;;;0.60;;
41661;SDS011;27351;45.992;12.666;2023-08-31T04:16:51;2.03;;;0.60;;
41661;SDS011;27351;45.992;12.666;2023-08-31T04:19:17;1.33;;;0.40;;
41661;SDS011;27351;45.992;12.666;2023-08-31T04:21:43;1.35;;;0.50;;
41661;SDS011;27351;45.992;12.666;2023-08-31T04:24:09;0.47;;;0.45;;
41661;SDS011;27351;45.992;12.666;2023-08-31T04:26:34;2.25;;;0.50;;
41661;SDS011;27351;45.992;12.666;2023-08-31T04:29:01;1.00;;;0.60;;
41661;SDS011;27351;45.992;12.666;2023-08-31T04:31:26;4.25;;;1.30;;
41661;SDS011;27351;45.992;12.666;2023-08-31T04:33:52;2.13;;;0.60;;
41661;SDS011;27351;45.992;12.666;2023-08-31T04:36:21;1.13;;;0.50;;
41661;SDS011;27351;45.992;12.666;2023-08-31T04:38:48;0.90;;;0.40;;
41661;SDS011;27351;45.992;12.666;2023-08-31T04:41:14;0.98;;;0.60;;
41661;SDS011;27351;45.992;12.666;2023-08-31T04:43:39;2.27;;;0.60;;
41661;SDS011;27351;45.992;12.666;2023-08-31T04:46:05;1.43;;;0.70;;
41661;SDS011;27351;45.992;12.666;2023-08-31T04:48:31;0.88;;;0.40;;
41661;SDS011;27351;45.992;12.666;2023-08-31T04:50:56;2.20;;;0.40;;
41661;SDS011;27351;45.992;12.666;2023-08-31T04:53:25;1.05;;;0.50;;
41661;SDS011;27351;45.992;12.666;2023-08-31T04:55:50;1.77;;;0.57;;
41661;SDS011;27351;45.992;12.666;2023-08-31T04:58:16;1.65;;;0.40;;
41661;SDS011;27351;45.992;12.666;2023-08-31T05:00:42;0.45;;;0.35;;
41661;SDS011;27351;45.992;12.666;2023-08-31T05:03:09;0.70;;;0.40;;
41661;SDS011;27351;45.992;12.666;2023-08-31T05:05:35;1.33;;;0.43;;
41661;SDS011;27351;45.992;12.666;2023-08-31T05:08:01;2.27;;;0.40;;
41661;SDS011;27351;45.992;12.666;2023-08-31T05:10:28;0.80;;;0.40;;
41661;SDS011;27351;45.992;12.666;2023-08-31T05:12:54;1.15;;;0.35;;
41661;SDS011;27351;45.992;12.666;2023-08-31T05:15:19;1.00;;;0.47;;
41661;SDS011;27351;45.992;12.666;2023-08-31T05:17:45;1.00;;;0.70;;
41661;SDS011;27351;45.992;12.666;2023-08-31T05:20:10;1.17;;;0.50;;
41661;SDS011;27351;45.992;12.666;2023-08-31T05:22:36;0.82;;;0.40;;
41661;SDS011;27351;45.992;12.666;2023-08-31T05:25:02;0.70;;;0.50;;
41661;SDS011;27351;45.992;12.666;2023-08-31T05:27:27;2.50;;;0.60;;
41661;SDS011;27351;45.992;12.666;2023-08-31T05:29:53;0.60;;;0.40;;
41661;SDS011;27351;45.992;12.666;2023-08-31T05:32:18;1.40;;;0.43;;
41661;SDS011;27351;45.992;12.666;2023-08-31T05:34:44;1.20;;;0.70;;
41661;SDS011;27351;45.992;12.666;2023-08-31T05:37:10;1.17;;;0.40;;
41661;SDS011;27351;45.992;12.666;2023-08-31T05:39:35;1.80;;;0.40;;
41661;SDS011;27351;45.992;12.666;2023-08-31T05:42:01;0.75;;;0.55;;
41661;SDS011;27351;45.992;12.666;2023-08-31T05:44:26;0.43;;;0.33;;
41661;SDS011;27351;45.992;12.666;2023-08-31T05:46:52;0.93;;;0.50;;
41661;SDS011;27351;45.992;12.666;2023-08-31T05:49:18;3.20;;;0.90;;
41661;SDS011;27351;45.992;12.666;2023-08-31T05:51:43;0.80;;;0.50;;
41661;SDS011;27351;45.992;12.666;2023-08-31T05:54:09;1.92;;;0.68;;
41661;SDS011;27351;45.992;12.666;2023-08-31T05:56:40;2.00;;;0.60;;
41661;SDS011;27351;45.992;12.666;2023-08-31T05:59:06;3.92;;;0.73;;
41661;SDS011;27351;45.992;12.666;2023-08-31T06:01:32;2.28;;;0.60;;
41661;SDS011;27351;45.992;12.666;2023-08-31T06:03:57;1.98;;;0.68;;
41661;SDS011;27351;45.992;12.666;2023-08-31T06:06:23;2.07;;;0.53;;
41661;SDS011;27351;45.992;12.666;2023-08-31T06:08:49;1.67;;;0.53;;
41661;SDS011;27351;45.992;12.666;2023-08-31T06:11:14;2.28;;;0.50;;
41661;SDS011;27351;45.992;12.666;2023-08-31T06:13:40;3.40;;;0.80;;
41661;SDS011;27351;45.992;12.666;2023-08-31T06:16:06;2.22;;;0.52;;
41661;SDS011;27351;45.992;12.666;2023-08-31T06:18:32;1.85;;;0.47;;
41661;SDS011;27351;45.992;12.666;2023-08-31T06:20:58;2.97;;;0.40;;
41661;SDS011;27351;45.992;12.666;2023-08-31T06:23:23;5.82;;;0.63;;
41661;SDS011;27351;45.992;12.666;2023-08-31T06:25:49;0.97;;;0.53;;
41661;SDS011;27351;45.992;12.666;2023-08-31T06:28:14;2.10;;;0.50;;
41661;SDS011;27351;45.992;12.666;2023-08-31T06:30:41;0.57;;;0.37;;
41661;SDS011;27351;45.992;12.666;2023-08-31T06:33:12;1.80;;;0.47;;
41661;SDS011;27351;45.992;12.666;2023-08-31T06:35:37;1.00;;;0.50;;
41661;SDS011;27351;45.992;12.666;2023-08-31T06:38:03;0.77;;;0.50;;
41661;SDS011;27351;45.992;12.666;2023-08-31T06:40:28;1.90;;;0.40;;
41661;SDS011;27351;45.992;12.666;2023-08-31T06:42:54;2.00;;;0.43;;
41661;SDS011;27351;45.992;12.666;2023-08-31T06:45:19;1.00;;;0.57;;
41661;SDS011;27351;45.992;12.666;2023-08-31T06:47:45;0.87;;;0.67;;
41661;SDS011;27351;45.992;12.666;2023-08-31T06:50:11;1.00;;;0.50;;
41661;SDS011;27351;45.992;12.666;2023-08-31T06:52:36;3.28;;;0.60;;
41661;SDS011;27351;45.992;12.666;2023-08-31T06:55:02;0.50;;;0.40;;
41661;SDS011;27351;45.992;12.666;2023-08-31T06:57:28;1.77;;;0.70;;
41661;SDS011;27351;45.992;12.666;2023-08-31T06:59:54;1.20;;;0.50;;
41661;SDS011;27351;45.992;12.666;2023-08-31T07:02:20;2.00;;;0.50;;
41661;SDS011;27351;45.992;12.666;2023-08-31T07:04:47;1.05;;;0.55;;
41661;SDS011;27351;45.992;12.666;2023-08-31T07:07:14;1.58;;;0.70;;
41661;SDS011;27351;45.992;12.666;2023-08-31T07:09:42;2.47;;;0.60;;
41661;SDS011;27351;45.992;12.666;2023-08-31T07:12:09;1.50;;;0.57;;
41661;SDS011;27351;45.992;12.666;2023-08-31T07:14:35;2.07;;;0.40;;
41661;SDS011;27351;45.992;12.666;2023-08-31T07:17:00;3.20;;;1.10;;
41661;SDS011;27351;45.992;12.666;2023-08-31T07:19:26;2.25;;;0.82;;
41661;SDS011;27351;45.992;12.666;2023-08-31T07:21:52;1.23;;;0.47;;
41661;SDS011;27351;45.992;12.666;2023-08-31T07:24:20;1.67;;;0.60;;
41661;SDS011;27351;45.992;12.666;2023-08-31T07:26:46;3.30;;;0.60;;
41661;SDS011;27351;45.992;12.666;2023-08-31T07:29:12;3.70;;;0.70;;
41661;SDS011;27351;45.992;12.666;2023-08-31T07:31:37;1.33;;;0.40;;
41661;SDS011;27351;45.992;12.666;2023-08-31T07:34:03;1.35;;;0.50;;
41661;SDS011;27351;45.992;12.666;2023-08-31T07:36:29;3.47;;;0.77;;
41661;SDS011;27351;45.992;12.666;2023-08-31T07:38:54;1.80;;;1.10;;
41661;SDS011;27351;45.992;12.666;2023-08-31T07:41:20;0.80;;;0.30;;
41661;SDS011;27351;45.992;12.666;2023-08-31T07:43:46;1.00;;;0.40;;
41661;SDS011;27351;45.992;12.666;2023-08-31T07:46:12;1.30;;;0.70;;
41661;SDS011;27351;45.992;12.666;2023-08-31T07:48:37;1.60;;;0.73;;
41661;SDS011;27351;45.992;12.666;2023-08-31T07:51:04;2.08;;;0.90;;
41661;SDS011;27351;45.992;12.666;2023-08-31T07:53:30;0.85;;;0.30;;
41661;SDS011;27351;45.992;12.666;2023-08-31T07:55:55;0.83;;;0.50;;
41661;SDS011;27351;45.992;12.666;2023-08-31T07:58:22;3.33;;;0.70;;
41661;SDS011;27351;45.992;12.666;2023-08-31T08:00:48;0.77;;;0.35;;
41661;SDS011;27351;45.992;12.666;2023-08-31T08:03:13;0.20;;;0.20;;
41661;SDS011;27351;45.992;12.666;2023-08-31T08:05:39;1.35;;;0.45;;
41661;SDS011;27351;45.992;12.666;2023-08-31T08:08:05;1.38;;;0.47;;
41661;SDS011;27351;45.992;12.666;2023-08-31T08:10:31;0.47;;;0.40;;
41661;SDS011;27351;45.992;12.666;2023-08-31T08:12:56;3.10;;;0.43;;
41661;SDS011;27351;45.992;12.666;2023-08-31T08:15:22;1.10;;;0.30;;
41661;SDS011;27351;45.992;12.666;2023-08-31T08:17:48;1.13;;;0.40;;
41661;SDS011;27351;45.992;12.666;2023-08-31T08:20:13;1.42;;;0.40;;
41661;SDS011;27351;45.992;12.666;2023-08-31T08:22:39;0.67;;;0.40;;
41661;SDS011;27351;45.992;12.666;2023-08-31T08:25:04;1.23;;;0.50;;
41661;SDS011;27351;45.992;12.666;2023-08-31T08:27:31;0.80;;;0.50;;
41661;SDS011;27351;45.992;12.666;2023-08-31T08:29:58;1.00;;;0.40;;
41661;SDS011;27351;45.992;12.666;2023-08-31T08:32:24;0.73;;;0.40;;
41661;SDS011;27351;45.992;12.666;2023-08-31T08:34:50;1.33;;;0.22;;
41661;SDS011;27351;45.992;12.666;2023-08-31T08:37:16;0.57;;;0.30;;
41661;SDS011;27351;45.992;12.666;2023-08-31T08:39:41;2.10;;;0.30;;
41661;SDS011;27351;45.992;12.666;2023-08-31T08:42:07;0.40;;;0.20;;
41661;SDS011;27351;45.992;12.666;2023-08-31T08:44:35;0.97;;;0.33;;
41661;SDS011;27351;45.992;12.666;2023-08-31T08:47:01;0.40;;;0.30;;
41661;SDS011;27351;45.992;12.666;2023-08-31T08:49:27;0.77;;;0.20;;
41661;SDS011;27351;45.992;12.666;2023-08-31T08:51:53;1.40;;;0.50;;
41661;SDS011;27351;45.992;12.666;2023-08-31T08:54:19;0.80;;;0.30;;
41661;SDS011;27351;45.992;12.666;2023-08-31T08:56:46;0.45;;;0.30;;
41661;SDS011;27351;45.992;12.666;2023-08-31T08:59:12;0.30;;;0.30;;
41661;SDS011;27351;45.992;12.666;2023-08-31T09:01:39;0.85;;;0.60;;
41661;SDS011;27351;45.992;12.666;2023-08-31T09:04:04;0.77;;;0.30;;
41661;SDS011;27351;45.992;12.666;2023-08-31T09:06:30;0.47;;;0.30;;
41661;SDS011;27351;45.992;12.666;2023-08-31T09:08:55;0.93;;;0.40;;
41661;SDS011;27351;45.992;12.666;2023-08-31T09:11:22;0.50;;;0.30;;
41661;SDS011;27351;45.992;12.666;2023-08-31T09:13:48;0.30;;;0.20;;
41661;SDS011;27351;45.992;12.666;2023-08-31T09:16:28;0.43;;;0.20;;
41661;SDS011;27351;45.992;12.666;2023-08-31T09:18:54;0.68;;;0.32;;
41661;SDS011;27351;45.992;12.666;2023-08-31T09:21:20;0.70;;;0.20;;
41661;SDS011;27351;45.992;12.666;2023-08-31T09:23:56;0.43;;;0.40;;
41661;SDS011;27351;45.992;12.666;2023-08-31T09:26:22;0.32;;;0.30;;
41661;SDS011;27351;45.992;12.666;2023-08-31T09:28:48;0.50;;;0.30;;
41661;SDS011;27351;45.992;12.666;2023-08-31T09:31:14;1.08;;;0.40;;
41661;SDS011;27351;45.992;12.666;2023-08-31T09:33:40;0.50;;;0.20;;
41661;SDS011;27351;45.992;12.666;2023-08-31T09:36:14;3.72;;;0.30;;
41661;SDS011;27351;45.992;12.666;2023-08-31T09:38:41;1.13;;;0.30;;
41661;SDS011;27351;45.992;12.666;2023-08-31T09:41:06;0.30;;;0.20;;
41661;SDS011;27351;45.992;12.666;2023-08-31T09:43:32;0.40;;;0.20;;
41661;SDS011;27351;45.992;12.666;2023-08-31T09:45:58;1.80;;;0.45;;
41661;SDS011;27351;45.992;12.666;2023-08-31T09:48:24;0.60;;;0.30;;
41661;SDS011;27351;45.992;12.666;2023-08-31T09:50:51;0.80;;;0.32;;
41661;SDS011;27351;45.992;12.666;2023-08-31T09:53:17;7.80;;;2.10;;
41661;SDS011;27351;45.992;12.666;2023-08-31T09:55:44;12.05;;;1.63;;
41661;SDS011;27351;45.992;12.666;2023-08-31T09:58:11;2.22;;;0.30;;
41661;SDS011;27351;45.992;12.666;2023-08-31T10:00:38;1.38;;;0.30;;
41661;SDS011;27351;45.992;12.666;2023-08-31T10:03:04;0.30;;;0.30;;
41661;SDS011;27351;45.992;12.666;2023-08-31T10:05:30;1.40;;;0.40;;
41661;SDS011;27351;45.992;12.666;2023-08-31T10:07:59;0.70;;;0.40;;
41661;SDS011;27351;45.992;12.666;2023-08-31T10:10:25;0.70;;;0.30;;
41661;SDS011;27351;45.992;12.666;2023-08-31T10:12:50;0.60;;;0.30;;
41661;SDS011;27351;45.992;12.666;2023-08-31T10:15:19;0.52;;;0.20;;
41661;SDS011;27351;45.992;12.666;2023-08-31T10:17:45;0.63;;;0.30;;
41661;SDS011;27351;45.992;12.666;2023-08-31T10:20:11;0.50;;;0.30;;
41661;SDS011;27351;45.992;12.666;2023-08-31T10:22:37;2.43;;;0.30;;
41661;SDS011;27351;45.992;12.666;2023-08-31T10:25:06;0.53;;;0.30;;
41661;SDS011;27351;45.992;12.666;2023-08-31T10:27:36;0.67;;;0.30;;
41661;SDS011;27351;45.992;12.666;2023-08-31T10:30:14;0.77;;;0.30;;
41661;SDS011;27351;45.992;12.666;2023-08-31T10:32:40;1.50;;;0.32;;
41661;SDS011;27351;45.992;12.666;2023-08-31T10:35:07;0.40;;;0.20;;
41661;SDS011;27351;45.992;12.666;2023-08-31T10:37:33;1.00;;;0.20;;
41661;SDS011;27351;45.992;12.666;2023-08-31T10:40:09;0.70;;;0.22;;
41661;SDS011;27351;45.992;12.666;2023-08-31T10:42:43;0.30;;;0.20;;
41661;SDS011;27351;45.992;12.666;2023-08-31T10:45:09;0.20;;;0.20;;
41661;SDS011;27351;45.992;12.666;2023-08-31T10:47:41;0.10;;;0.10;;
41661;SDS011;27351;45.992;12.666;2023-08-31T10:50:19;1.95;;;0.20;;
41661;SDS011;27351;45.992;12.666;2023-08-31T10:52:46;0.90;;;0.30;;
41661;SDS011;27351;45.992;12.666;2023-08-31T10:55:11;0.30;;;0.10;;
41661;SDS011;27351;45.992;12.666;2023-08-31T10:57:37;0.30;;;0.20;;
41661;SDS011;27351;45.992;12.666;2023-08-31T11:00:04;2.07;;;0.37;;
41661;SDS011;27351;45.992;12.666;2023-08-31T11:05:00;0.98;;;0.30;;
41661;SDS011;27351;45.992;12.666;2023-08-31T11:07:29;2.20;;;0.30;;
41661;SDS011;27351;45.992;12.666;2023-08-31T11:10:06;1.15;;;0.20;;
41661;SDS011;27351;45.992;12.666;2023-08-31T11:12:32;0.38;;;0.20;;
41661;SDS011;27351;45.992;12.666;2023-08-31T11:14:57;0.40;;;0.20;;
41661;SDS011;27351;45.992;12.666;2023-08-31T11:17:23;0.30;;;0.20;;
41661;SDS011;27351;45.992;12.666;2023-08-31T11:19:49;0.47;;;0.28;;
41661;SDS011;27351;45.992;12.666;2023-08-31T11:22:15;0.80;;;0.20;;
41661;SDS011;27351;45.992;12.666;2023-08-31T11:24:40;0.20;;;0.20;;
41661;SDS011;27351;45.992;12.666;2023-08-31T11:27:09;0.25;;;0.22;;
41661;SDS011;27351;45.992;12.666;2023-08-31T11:29:38;1.30;;;0.20;;
41661;SDS011;27351;45.992;12.666;2023-08-31T11:32:04;0.90;;;0.30;;
41661;SDS011;27351;45.992;12.666;2023-08-31T11:34:30;0.50;;;0.20;;
41661;SDS011;27351;45.992;12.666;2023-08-31T11:36:58;0.40;;;0.20;;
41661;SDS011;27351;45.992;12.666;2023-08-31T11:39:24;0.88;;;0.30;;
41661;SDS011;27351;45.992;12.666;2023-08-31T11:41:50;1.13;;;0.30;;
41661;SDS011;27351;45.992;12.666;2023-08-31T11:44:15;0.20;;;0.20;;
41661;SDS011;27351;45.992;12.666;2023-08-31T11:46:42;1.80;;;0.40;;
41661;SDS011;27351;45.992;12.666;2023-08-31T11:49:08;0.28;;;0.20;;
41661;SDS011;27351;45.992;12.666;2023-08-31T11:51:34;0.60;;;0.30;;
41661;SDS011;27351;45.992;12.666;2023-08-31T11:54:00;1.20;;;0.40;;
41661;SDS011;27351;45.992;12.666;2023-08-31T11:56:37;0.70;;;0.20;;
41661;SDS011;27351;45.992;12.666;2023-08-31T11:59:06;0.20;;;0.20;;
41661;SDS011;27351;45.992;12.666;2023-08-31T12:01:32;1.30;;;0.40;;
41661;SDS011;27351;45.992;12.666;2023-08-31T12:03:58;0.43;;;0.20;;
41661;SDS011;27351;45.992;12.666;2023-08-31T12:06:23;0.60;;;0.30;;
41661;SDS011;27351;45.992;12.666;2023-08-31T12:08:49;0.68;;;0.25;;
41661;SDS011;27351;45.992;12.666;2023-08-31T12:11:14;0.60;;;0.30;;
41661;SDS011;27351;45.992;12.666;2023-08-31T12:13:40;1.55;;;0.30;;
41661;SDS011;27351;45.992;12.666;2023-08-31T12:16:11;0.63;;;0.30;;
41661;SDS011;27351;45.992;12.666;2023-08-31T12:18:37;0.30;;;0.20;;
41661;SDS011;27351;45.992;12.666;2023-08-31T12:21:02;0.50;;;0.30;;
41661;SDS011;27351;45.992;12.666;2023-08-31T12:23:30;1.10;;;0.30;;
41661;SDS011;27351;45.992;12.666;2023-08-31T12:25:55;0.38;;;0.20;;
41661;SDS011;27351;45.992;12.666;2023-08-31T12:28:21;0.83;;;0.23;;
41661;SDS011;27351;45.992;12.666;2023-08-31T12:30:47;0.50;;;0.30;;
41661;SDS011;27351;45.992;12.666;2023-08-31T12:33:14;0.68;;;0.30;;
41661;SDS011;27351;45.992;12.666;2023-08-31T12:35:39;1.00;;;0.35;;
41661;SDS011;27351;45.992;12.666;2023-08-31T12:38:05;0.60;;;0.37;;
41661;SDS011;27351;45.992;12.666;2023-08-31T12:40:31;1.37;;;0.40;;
41661;SDS011;27351;45.992;12.666;2023-08-31T12:42:56;0.40;;;0.40;;
41661;SDS011;27351;45.992;12.666;2023-08-31T12:45:22;0.90;;;0.40;;
41661;SDS011;27351;45.992;12.666;2023-08-31T12:47:47;0.50;;;0.40;;
41661;SDS011;27351;45.992;12.666;2023-08-31T12:50:13;0.73;;;0.50;;
41661;SDS011;27351;45.992;12.666;2023-08-31T12:52:39;0.20;;;0.17;;
41661;SDS011;27351;45.992;12.666;2023-08-31T12:55:10;0.52;;;0.30;;
41661;SDS011;27351;45.992;12.666;2023-08-31T12:57:35;1.48;;;0.40;;
41661;SDS011;27351;45.992;12.666;2023-08-31T13:00:01;0.30;;;0.30;;
41661;SDS011;27351;45.992;12.666;2023-08-31T13:02:29;1.20;;;0.40;;
41661;SDS011;27351;45.992;12.666;2023-08-31T13:04:54;0.40;;;0.30;;
41661;SDS011;27351;45.992;12.666;2023-08-31T13:07:20;1.00;;;0.40;;
41661;SDS011;27351;45.992;12.666;2023-08-31T13:09:45;0.22;;;0.20;;
41661;SDS011;27351;45.992;12.666;2023-08-31T13:12:11;0.95;;;0.35;;
41661;SDS011;27351;45.992;12.666;2023-08-31T13:14:37;1.40;;;0.40;;
41661;SDS011;27351;45.992;12.666;2023-08-31T13:17:02;0.55;;;0.40;;
41661;SDS011;27351;45.992;12.666;2023-08-31T13:19:29;1.40;;;0.80;;
41661;SDS011;27351;45.992;12.666;2023-08-31T13:21:54;0.50;;;0.30;;
41661;SDS011;27351;45.992;12.666;2023-08-31T13:24:20;0.50;;;0.30;;
41661;SDS011;27351;45.992;12.666;2023-08-31T13:26:46;0.55;;;0.20;;
41661;SDS011;27351;45.992;12.666;2023-08-31T13:29:13;0.35;;;0.30;;
41661;SDS011;27351;45.992;12.666;2023-08-31T13:31:39;1.00;;;0.35;;
41661;SDS011;27351;45.992;12.666;2023-08-31T13:34:04;0.90;;;0.50;;
41661;SDS011;27351;45.992;12.666;2023-08-31T13:36:33;1.60;;;0.50;;
41661;SDS011;27351;45.992;12.666;2023-08-31T13:38:59;0.57;;;0.28;;
41661;SDS011;27351;45.992;12.666;2023-08-31T13:41:24;1.33;;;0.40;;
41661;SDS011;27351;45.992;12.666;2023-08-31T13:43:50;0.70;;;0.30;;
41661;SDS011;27351;45.992;12.666;2023-08-31T13:46:17;2.08;;;0.70;;
41661;SDS011;27351;45.992;12.666;2023-08-31T13:48:43;1.50;;;0.52;;
41661;SDS011;27351;45.992;12.666;2023-08-31T13:51:09;0.80;;;0.60;;
41661;SDS011;27351;45.992;12.666;2023-08-31T13:53:35;1.85;;;0.85;;
41661;SDS011;27351;45.992;12.666;2023-08-31T13:56:00;2.10;;;0.90;;
41661;SDS011;27351;45.992;12.666;2023-08-31T13:58:27;2.07;;;1.10;;
41661;SDS011;27351;45.992;12.666;2023-08-31T14:00:52;2.50;;;1.20;;
41661;SDS011;27351;45.992;12.666;2023-08-31T14:03:18;2.80;;;1.30;;
41661;SDS011;27351;45.992;12.666;2023-08-31T14:05:47;5.27;;;1.57;;
41661;SDS011;27351;45.992;12.666;2023-08-31T14:08:13;4.68;;;1.63;;
41661;SDS011;27351;45.992;12.666;2023-08-31T14:10:39;5.33;;;2.07;;
41661;SDS011;27351;45.992;12.666;2023-08-31T14:13:04;4.30;;;1.75;;
41661;SDS011;27351;45.992;12.666;2023-08-31T14:15:30;1.47;;;0.80;;
41661;SDS011;27351;45.992;12.666;2023-08-31T14:17:56;1.73;;;1.00;;
41661;SDS011;27351;45.992;12.666;2023-08-31T14:20:21;1.80;;;1.20;;
41661;SDS011;27351;45.992;12.666;2023-08-31T14:22:47;2.05;;;0.93;;
41661;SDS011;27351;45.992;12.666;2023-08-31T14:25:14;2.95;;;1.10;;
41661;SDS011;27351;45.992;12.666;2023-08-31T14:27:39;3.10;;;1.35;;
41661;SDS011;27351;45.992;12.666;2023-08-31T14:30:05;3.50;;;1.20;;
41661;SDS011;27351;45.992;12.666;2023-08-31T14:32:34;4.30;;;1.45;;
41661;SDS011;27351;45.992;12.666;2023-08-31T14:35:00;5.63;;;1.90;;
41661;SDS011;27351;45.992;12.666;2023-08-31T14:37:25;4.60;;;1.67;;
41661;SDS011;27351;45.992;12.666;2023-08-31T14:39:51;5.35;;;1.60;;
41661;SDS011;27351;45.992;12.666;2023-08-31T14:42:17;6.60;;;1.70;;